Time;durP1;ratioP1;P1;durP2;ratioP2;P2;SDS_P1;SDS_P2;PMS_P1;PMS_P2;Temp;Humidity;BMP_temperature;BMP_pressure;BME280_temperature;BME280_humidity;BME280_pressure;Samples;Min_cycle;Max_cycle;Signal;HPM_P1;HPM_P2
2023/03/07 00:01:55;;;;;;;9.27;6.28;;;;;;;8.63;58.90;99821.97;5041102;27;114607;-68
2023/03/07 00:04:22;;;;;;;9.13;6.20;;;;;;;8.64;58.65;99828.94;5041790;27;114147;-67
2023/03/07 00:06:49;;;;;;;9.48;5.40;;;;;;;8.64;58.90;99819.25;5037399;27;124007;-67
2023/03/07 00:09:16;;;;;;;6.85;5.05;;;;;;;8.64;58.58;99819.25;5045109;27;123665;-67
2023/03/07 00:11:44;;;;;;;8.60;5.38;;;;;;;8.65;58.75;99826.22;5035555;27;113990;-67
2023/03/07 00:14:11;;;;;;;7.63;5.60;;;;;;;8.64;58.67;99824.53;5020495;27;113027;-67
2023/03/07 00:16:38;;;;;;;8.05;5.45;;;;;;;8.65;58.36;99814.84;5043218;27;123979;-67
2023/03/07 00:19:06;;;;;;;8.65;5.60;;;;;;;8.63;58.62;99814.91;5037492;27;123213;-68
2023/03/07 00:21:34;;;;;;;7.05;5.20;;;;;;;8.60;58.47;99809.78;5042674;27;113908;-67
2023/03/07 00:24:01;;;;;;;7.80;4.90;;;;;;;8.59;58.62;99816.00;5041105;27;114592;-67
2023/03/07 00:26:28;;;;;;;7.43;5.15;;;;;;;8.58;58.87;99811.66;5038719;27;124073;-66
2023/03/07 00:28:55;;;;;;;6.65;4.60;;;;;;;8.57;58.59;99809.97;5039012;27;124564;-66
2023/03/07 00:31:23;;;;;;;7.18;4.72;;;;;;;8.55;58.61;99814.44;5040495;27;114210;-67
2023/03/07 00:33:50;;;;;;;6.63;4.68;;;;;;;8.54;58.96;99812.75;5025491;27;114180;-67
2023/03/07 00:36:20;;;;;;;7.47;4.55;;;;;;;8.51;58.83;99805.00;5018973;27;124036;-67
2023/03/07 00:38:48;;;;;;;5.80;4.15;;;;;;;8.50;58.63;99811.22;5018467;27;122941;-67
2023/03/07 00:41:19;;;;;;;7.15;4.25;;;;;;;8.48;58.95;99805.19;5039862;27;115286;-66
2023/03/07 00:43:46;;;;;;;5.65;3.90;;;;;;;8.46;58.48;99801.78;5035623;27;113992;-66
2023/03/07 00:46:14;;;;;;;5.68;3.75;;;;;;;8.47;59.00;99816.66;5041009;27;124300;-66
2023/03/07 00:48:42;;;;;;;5.30;3.38;;;;;;;8.45;58.71;99810.59;5036605;27;123902;-67
2023/03/07 00:51:13;;;;;;;6.00;3.28;;;;;;;8.43;58.80;99794.00;5015783;27;113585;-66
2023/03/07 00:53:41;;;;;;;4.53;3.13;;;;;;;8.39;58.82;99799.41;5026579;27;113030;-66
2023/03/07 00:56:15;;;;;;;3.90;2.97;;;;;;;8.38;58.74;99796.84;5027077;27;123045;-66
2023/03/07 00:58:43;;;;;;;;;;;;;;;8.35;58.68;99803.13;5018922;27;124059;-66
2023/03/07 01:01:13;;;;;;;3.97;2.72;;;;;;;8.34;58.98;99801.44;5042658;27;113589;-67
2023/03/07 01:03:41;;;;;;;3.13;2.35;;;;;;;8.33;58.71;99799.72;5018483;27;113355;-67
2023/03/07 01:06:13;;;;;;;4.72;2.42;;;;;;;8.32;58.97;99802.44;5037206;27;122872;-66
2023/03/07 01:08:40;;;;;;;5.07;2.30;;;;;;;8.30;58.94;99791.97;5001960;27;124059;-67
2023/03/07 01:11:07;;;;;;;4.47;2.30;;;;;;;8.27;58.77;99800.06;5031000;27;113171;-66
2023/03/07 01:13:36;;;;;;;3.13;1.80;;;;;;;8.25;58.96;99791.38;5019185;27;113174;-66
2023/03/07 01:16:13;;;;;;;2.58;1.80;;;;;;;8.24;58.60;99794.94;5035940;27;123831;-67
2023/03/07 01:18:43;;;;;;;2.80;1.58;;;;;;;8.22;58.62;99786.25;5018653;27;123350;-67
2023/03/07 01:21:22;;;;;;;2.90;1.80;;;;;;;8.18;59.02;99790.84;5034886;27;113784;-67
2023/03/07 01:23:50;;;;;;;2.67;1.60;;;;;;;8.18;58.90;99795.25;5020231;27;113213;-66
2023/03/07 01:26:21;;;;;;;3.78;1.70;;;;;;;8.15;58.64;99787.50;5033969;27;124327;-66
2023/03/07 01:28:51;;;;;;;2.17;1.45;;;;;;;8.14;58.89;99789.28;5019763;27;123093;-66
2023/03/07 01:31:19;;;;;;;3.55;1.52;;;;;;;8.13;58.74;99779.66;5007014;27;114661;-67
2023/03/07 01:33:46;;;;;;;2.55;1.60;;;;;;;8.11;58.89;99772.78;5041962;27;115074;-67
2023/03/07 01:36:19;;;;;;;2.35;1.30;;;;;;;8.10;58.88;99771.94;5035971;27;124007;-67
2023/03/07 01:38:48;;;;;;;2.70;1.50;;;;;;;8.08;58.74;99768.53;5028075;27;123524;-66
2023/03/07 01:41:16;;;;;;;1.80;1.33;;;;;;;8.07;58.95;99776.50;5017290;27;113394;-67
2023/03/07 01:43:46;;;;;;;4.03;1.50;;;;;;;8.06;58.95;99764.25;5031985;27;113239;-66
2023/03/07 01:46:16;;;;;;;2.63;1.50;;;;;;;8.04;58.92;99766.09;5036842;27;122927;-67
2023/03/07 01:48:56;;;;;;;3.75;1.80;;;;;;;8.04;58.75;99766.09;5019970;27;123030;-67
2023/03/07 01:51:25;;;;;;;2.45;1.50;;;;;;;8.04;58.99;99760.84;5030943;27;113351;-67
2023/03/07 01:53:54;;;;;;;3.70;1.58;;;;;;;8.04;59.13;99750.28;5036331;27;113373;-67
2023/03/07 01:56:22;;;;;;;2.20;1.50;;;;;;;8.04;58.87;99755.56;5031902;27;124564;-67
2023/03/07 01:58:50;;;;;;;2.55;1.73;;;;;;;8.04;59.09;99750.28;5037398;27;122919;-67
2023/03/07 02:01:17;;;;;;;3.00;1.70;;;;;;;8.05;59.26;99741.47;5029308;27;114250;-67
2023/03/07 02:03:56;;;;;;;3.72;1.70;;;;;;;8.06;59.33;99743.16;5018953;27;113099;-67
2023/03/07 02:06:26;;;;;;;6.05;2.30;;;;;;;8.09;59.38;99740.38;5040640;27;124870;-67
2023/03/07 02:08:55;;;;;;;3.00;1.70;;;;;;;8.09;59.37;99732.44;5029579;27;123027;-67
2023/03/07 02:11:23;;;;;;;4.10;2.10;;;;;;;8.09;59.35;99733.28;5035134;27;113393;-68
2023/03/07 02:13:51;;;;;;;3.20;2.28;;;;;;;8.10;59.40;99726.22;5046251;27;114232;-67
2023/03/07 02:16:19;;;;;;;3.15;2.17;;;;;;;8.10;59.26;99728.84;5039806;27;123129;-67
2023/03/07 02:18:48;;;;;;;3.75;2.40;;;;;;;8.10;59.19;99724.47;5045722;27;124133;-67
2023/03/07 02:21:50;;;;;;;3.47;2.33;;;;;;;8.09;59.57;99722.75;5034931;27;114195;-67
2023/03/07 02:24:31;;;;;;;4.13;3.20;;;;;;;8.11;59.36;99720.03;5031257;27;114025;-68
2023/03/07 02:26:58;;;;;;;5.85;2.85;;;;;;;8.11;59.52;99714.75;5042693;27;124035;-67
2023/03/07 02:29:25;;;;;;;4.72;3.33;;;;;;;8.12;59.53;99722.59;5023148;27;123022;-68
2023/03/07 02:31:52;;;;;;;4.88;3.33;;;;;;;8.12;59.41;99717.31;5040800;27;113405;-68
2023/03/07 02:34:28;;;;;;;5.75;3.97;;;;;;;8.13;59.69;99718.16;5020259;27;113100;-67
2023/03/07 02:37:29;;;;;;;6.65;4.30;;;;;;;8.14;59.41;99725.16;5025240;27;124083;-67
2023/03/07 02:40:00;;;;;;;6.10;4.15;;;;;;;8.15;59.78;99718.94;5039693;27;123413;-67
2023/03/07 02:42:30;;;;;;;6.97;4.40;;;;;;;8.15;59.83;99713.66;5037817;27;113383;-67
2023/03/07 02:45:09;;;;;;;8.75;5.30;;;;;;;8.16;59.49;99705.66;5037318;27;113765;-66
2023/03/07 02:47:38;;;;;;;6.47;4.32;;;;;;;8.17;59.82;99709.16;5038382;27;123801;-67
2023/03/07 02:50:06;;;;;;;5.97;4.32;;;;;;;8.18;59.57;99705.59;5022326;27;123088;-68
2023/03/07 02:52:36;;;;;;;5.95;4.10;;;;;;;8.17;59.79;99710.03;5025377;27;113813;-67
2023/03/07 02:55:04;;;;;;;6.07;4.00;;;;;;;8.19;59.58;99707.28;5035852;27;113209;-67
2023/03/07 02:57:35;;;;;;;6.05;4.10;;;;;;;8.20;59.65;99701.09;5026924;27;123079;-67
2023/03/07 03:00:08;;;;;;;6.50;3.92;;;;;;;8.20;59.85;99703.72;5031553;27;125371;-67
2023/03/07 03:02:35;;;;;;;5.95;4.20;;;;;;;8.20;59.62;99698.44;5038826;27;113340;-67
2023/03/07 03:05:03;;;;;;;6.70;4.28;;;;;;;8.20;59.62;99703.72;5031721;27;113436;-67
2023/03/07 03:07:30;;;;;;;7.03;4.30;;;;;;;8.22;59.92;99701.84;5041704;27;123178;-67
2023/03/07 03:09:57;;;;;;;7.00;4.57;;;;;;;8.22;60.07;99701.84;5020687;27;123082;-67
2023/03/07 03:12:25;;;;;;;8.07;4.53;;;;;;;8.23;59.81;99703.56;5035319;27;115305;-67
2023/03/07 03:14:52;;;;;;;6.40;4.43;;;;;;;8.24;60.12;99705.25;5042145;27;113941;-68
2023/03/07 03:17:19;;;;;;;6.45;4.32;;;;;;;8.24;59.89;99705.25;5039710;27;125118;-67
2023/03/07 03:19:46;;;;;;;6.22;4.15;;;;;;;8.23;59.61;99702.69;5021245;27;124008;-67
2023/03/07 03:22:13;;;;;;;7.15;4.43;;;;;;;8.24;59.98;99705.25;5015271;27;113895;-67
2023/03/07 03:24:44;;;;;;;6.57;4.38;;;;;;;8.23;59.79;99698.28;5025576;27;113149;-67
2023/03/07 03:27:15;;;;;;;6.22;4.30;;;;;;;8.22;59.92;99696.56;5026915;27;123139;-67
2023/03/07 03:29:45;;;;;;;7.60;4.55;;;;;;;8.23;60.03;99703.56;5019082;27;123595;-68
2023/03/07 03:32:12;;;;;;;5.03;3.90;;;;;;;8.21;59.76;99694.84;5024471;27;113408;-67
2023/03/07 03:34:42;;;;;;;5.50;3.97;;;;;;;8.21;59.94;99694.84;5044805;27;113267;-67
2023/03/07 03:37:09;;;;;;;4.85;3.72;;;;;;;8.21;60.04;99686.09;5034294;27;123361;-68
2023/03/07 03:39:37;;;;;;;5.88;3.88;;;;;;;8.22;59.85;99691.31;5035963;27;123258;-67
2023/03/07 03:42:05;;;;;;;6.15;3.60;;;;;;;8.21;60.08;99689.59;5019877;27;113132;-67
2023/03/07 03:44:32;;;;;;;5.57;3.75;;;;;;;8.20;59.82;99687.91;5042059;27;113214;-67
2023/03/07 03:47:01;;;;;;;6.20;3.83;;;;;;;8.20;59.92;99682.63;5035461;27;123427;-67
2023/03/07 03:49:28;;;;;;;6.60;3.65;;;;;;;8.20;60.33;99682.63;5033517;27;122936;-67
2023/03/07 03:51:56;;;;;;;6.15;3.88;;;;;;;8.17;60.07;99673.09;5023823;27;113322;-68
2023/03/07 03:54:23;;;;;;;5.85;3.80;;;;;;;8.17;60.08;99672.22;5028985;27;112433;-67
2023/03/07 03:56:52;;;;;;;5.97;4.03;;;;;;;8.15;59.97;99674.94;5024032;28;123042;-67
2023/03/07 03:59:21;;;;;;;5.88;3.75;;;;;;;8.16;60.34;99665.25;5045732;27;124628;-67
2023/03/07 04:01:48;;;;;;;5.63;3.72;;;;;;;8.17;60.25;99666.94;5043503;27;114427;-68
2023/03/07 04:04:17;;;;;;;5.93;3.80;;;;;;;8.16;60.30;99662.63;5029156;27;114104;-68
2023/03/07 04:06:45;;;;;;;6.07;3.90;;;;;;;8.16;60.40;99660.00;5046900;27;124469;-68
2023/03/07 04:09:12;;;;;;;6.45;3.75;;;;;;;8.16;60.07;99660.00;5039525;27;124622;-67
2023/03/07 04:11:42;;;;;;;5.53;3.45;;;;;;;8.14;60.33;99651.31;5008679;28;112629;-67
2023/03/07 04:14:10;;;;;;;5.65;3.75;;;;;;;8.14;60.38;99651.31;5026940;27;113519;-67
2023/03/07 04:16:37;;;;;;;4.40;3.00;;;;;;;8.14;60.35;99656.59;5041871;27;122785;-66
2023/03/07 04:19:04;;;;;;;5.70;3.38;;;;;;;8.14;60.31;99646.03;5031874;27;123382;-67
2023/03/07 04:21:31;;;;;;;5.50;3.42;;;;;;;8.14;60.09;99646.03;5038017;27;114792;-67
2023/03/07 04:23:59;;;;;;;5.45;3.65;;;;;;;8.14;60.50;99640.75;5030827;27;116559;-67
2023/03/07 04:26:29;;;;;;;5.20;3.33;;;;;;;8.14;60.02;99640.75;5030682;27;123214;-67
2023/03/07 04:28:56;;;;;;;5.32;3.17;;;;;;;8.14;60.01;99635.50;5031883;27;122862;-67
2023/03/07 04:31:29;;;;;;;4.78;3.15;;;;;;;8.13;60.10;99629.34;5022502;27;113487;-67
2023/03/07 04:34:00;;;;;;;5.90;3.38;;;;;;;8.13;60.28;99628.50;5030490;27;113621;-67
2023/03/07 04:36:28;;;;;;;4.72;3.25;;;;;;;8.13;60.25;99628.50;5027552;27;123664;-67
2023/03/07 04:38:55;;;;;;;4.85;3.38;;;;;;;8.12;60.18;99621.53;5030690;27;122871;-67
2023/03/07 04:41:25;;;;;;;3.88;3.00;;;;;;;8.11;60.01;99617.19;5024426;27;113746;-67
2023/03/07 04:44:03;;;;;;;4.63;3.10;;;;;;;8.11;60.15;99619.81;5023091;27;113597;-66
2023/03/07 04:46:30;;;;;;;4.90;3.10;;;;;;;8.10;60.25;99612.84;5030546;27;123405;-67
2023/03/07 04:48:58;;;;;;;4.68;3.00;;;;;;;8.09;60.19;99617.25;5022450;27;123003;-67
2023/03/07 04:51:27;;;;;;;4.97;2.92;;;;;;;8.09;60.43;99611.16;5021170;27;114591;-67
2023/03/07 04:53:54;;;;;;;5.43;3.00;;;;;;;8.08;60.07;99610.31;5047645;27;115391;-67
2023/03/07 04:56:22;;;;;;;4.43;2.70;;;;;;;8.08;60.35;99609.44;5031286;27;123114;-67
2023/03/07 04:58:49;;;;;;;3.80;2.55;;;;;;;8.08;60.25;99604.16;5040286;27;124100;-67
2023/03/07 05:01:17;;;;;;;5.10;2.90;;;;;;;8.07;60.51;99599.84;5027021;27;113627;-68
2023/03/07 05:03:46;;;;;;;3.53;2.38;;;;;;;8.06;60.23;99611.31;5031970;27;113463;-68
2023/03/07 05:06:15;;;;;;;4.63;2.70;;;;;;;8.08;60.58;99604.16;5042642;27;123187;-68
2023/03/07 05:08:47;;;;;;;4.15;2.53;;;;;;;8.08;60.40;99598.88;5028255;27;122858;-68
2023/03/07 05:11:15;;;;;;;3.97;2.80;;;;;;;8.07;60.08;99597.19;5044493;27;113712;-68
2023/03/07 05:13:42;;;;;;;3.72;2.40;;;;;;;8.05;60.15;99588.53;5045771;27;113709;-68
2023/03/07 05:16:09;;;;;;;4.68;2.72;;;;;;;8.04;60.27;99597.34;5044624;27;123315;-68
2023/03/07 05:18:37;;;;;;;4.65;2.60;;;;;;;8.03;60.54;99587.75;5023423;27;123531;-68
2023/03/07 05:21:05;;;;;;;4.25;2.58;;;;;;;8.02;60.66;99586.03;5016609;27;114210;-68
2023/03/07 05:23:32;;;;;;;4.07;2.53;;;;;;;8.02;60.54;99588.69;5028486;27;112594;-68
2023/03/07 05:25:59;;;;;;;5.00;2.60;;;;;;;7.99;60.47;99585.28;5035834;27;123198;-68
2023/03/07 05:28:26;;;;;;;4.55;2.70;;;;;;;7.99;59.95;99580.00;5020341;27;123313;-68
2023/03/07 05:30:54;;;;;;;4.75;1.98;;;;;;;7.98;60.45;99588.84;5040761;27;114581;-69
2023/03/07 05:33:21;;;;;;;3.72;1.88;;;;;;;7.97;60.42;99587.16;5051203;27;114196;-67
2023/03/07 05:35:48;;;;;;;3.70;1.92;;;;;;;7.99;60.45;99584.44;5021944;27;123224;-68
2023/03/07 05:38:17;;;;;;;6.13;2.00;;;;;;;8.01;60.62;99589.63;5042865;27;124667;-68
2023/03/07 05:40:44;;;;;;;3.63;2.33;;;;;;;7.99;60.24;99582.66;5042738;27;114335;-68
2023/03/07 05:43:13;;;;;;;4.97;2.20;;;;;;;7.99;60.48;99585.28;5022689;27;114437;-68
2023/03/07 05:45:40;;;;;;;3.45;2.00;;;;;;;7.99;60.18;99589.72;5026430;27;123056;-68
2023/03/07 05:48:07;;;;;;;4.18;2.33;;;;;;;8.01;60.39;99592.28;5018381;27;123042;-68
2023/03/07 05:50:37;;;;;;;7.25;2.25;;;;;;;8.02;60.10;99583.41;5046139;27;113487;-68
2023/03/07 05:53:05;;;;;;;3.70;2.30;;;;;;;8.02;60.14;99583.41;5042111;27;113219;-68
2023/03/07 05:55:33;;;;;;;3.70;2.28;;;;;;;8.02;60.49;99583.41;5042966;27;124077;-68
2023/03/07 05:58:01;;;;;;;4.45;2.50;;;;;;;8.02;60.44;99588.69;5021032;27;123443;-68
2023/03/07 06:00:28;;;;;;;6.57;2.50;;;;;;;8.01;60.38;99587.00;5022836;27;114020;-67
2023/03/07 06:03:02;;;;;;;4.60;2.30;;;;;;;7.99;60.21;99585.28;5036336;27;113908;-68
2023/03/07 06:05:31;;;;;;;5.35;2.40;;;;;;;7.97;60.31;99592.44;5030748;27;123670;-68
2023/03/07 06:07:58;;;;;;;5.03;2.72;;;;;;;7.97;60.19;99592.44;5036277;27;124352;-67
2023/03/07 06:10:25;;;;;;;4.22;2.33;;;;;;;7.97;60.47;99587.16;5022622;27;113325;-68
2023/03/07 06:12:53;;;;;;;6.30;2.75;;;;;;;7.97;60.43;99587.16;5040262;27;115476;-68
2023/03/07 06:15:21;;;;;;;6.50;2.58;;;;;;;7.96;60.20;99590.72;5025552;27;122886;-67
2023/03/07 06:17:55;;;;;;;;;;;;;;;7.94;59.99;99584.66;5040047;27;126439;-68
2023/03/07 06:20:24;;;;;;;4.97;2.60;;;;;;;7.93;60.11;99580.34;5018103;28;114736;-67
2023/03/07 06:22:54;;;;;;;3.08;2.22;;;;;;;7.89;59.72;99578.81;5036300;27;113430;-68
2023/03/07 06:25:21;;;;;;;3.88;2.40;;;;;;;7.86;60.09;99578.97;5047392;27;123154;-67
2023/03/07 06:27:49;;;;;;;5.88;2.60;;;;;;;7.85;60.19;99577.25;5027437;27;123761;-68
2023/03/07 06:30:16;;;;;;;5.07;2.35;;;;;;;7.84;60.36;99575.56;5039395;27;114358;-67
2023/03/07 06:32:44;;;;;;;4.25;2.50;;;;;;;7.86;60.48;99584.25;5035964;27;114893;-66
2023/03/07 06:35:11;;;;;;;5.03;2.60;;;;;;;7.86;60.02;99584.25;5035558;27;123839;-67
2023/03/07 06:37:39;;;;;;;5.30;2.58;;;;;;;7.87;59.97;99585.94;5019143;27;123130;-67
2023/03/07 06:40:09;;;;;;;4.72;2.63;;;;;;;7.88;60.02;99586.81;5041009;27;113646;-66
2023/03/07 06:42:38;;;;;;;3.33;2.00;;;;;;;7.87;60.02;99591.19;5014284;27;112884;-67
2023/03/07 06:45:07;;;;;;;5.03;2.30;;;;;;;7.86;60.01;99594.78;5038848;27;123199;-68
2023/03/07 06:47:34;;;;;;;3.67;2.15;;;;;;;7.83;60.20;99600.22;5035304;27;123662;-67
2023/03/07 06:50:03;;;;;;;4.32;2.40;;;;;;;7.81;59.77;99596.81;5029814;27;113365;-66
2023/03/07 06:52:32;;;;;;;4.25;2.50;;;;;;;7.78;59.90;99594.38;5036469;27;113214;-66
2023/03/07 06:55:00;;;;;;;4.18;2.42;;;;;;;7.73;60.01;99599.88;5033430;27;123213;-67
2023/03/07 06:57:28;;;;;;;5.50;2.40;;;;;;;7.72;59.77;99602.56;5023761;27;123482;-66
2023/03/07 06:59:56;;;;;;;5.07;2.50;;;;;;;7.69;60.10;99602.75;5023382;27;113151;-66
2023/03/07 07:02:23;;;;;;;5.07;2.67;;;;;;;7.66;59.71;99597.63;5021719;27;113206;-66
2023/03/07 07:04:50;;;;;;;3.53;2.42;;;;;;;7.63;60.06;99600.44;5019279;27;123675;-68
2023/03/07 07:07:18;;;;;;;3.38;2.05;;;;;;;7.57;59.91;99597.22;5034110;27;122869;-68
2023/03/07 07:09:45;;;;;;;3.72;2.47;;;;;;;7.52;59.82;99606.28;5042468;27;113568;-68
2023/03/07 07:12:12;;;;;;;3.72;2.13;;;;;;;7.47;59.71;99603.88;5034254;27;114196;-67
2023/03/07 07:14:39;;;;;;;3.67;2.13;;;;;;;7.42;59.58;99600.63;5029263;27;123122;-68
2023/03/07 07:17:07;;;;;;;4.47;2.10;;;;;;;7.38;59.83;99599.06;5037950;27;123935;-66
2023/03/07 07:19:34;;;;;;;4.18;2.40;;;;;;;7.33;59.67;99607.22;5020501;27;114382;-65
2023/03/07 07:22:02;;;;;;;4.32;2.10;;;;;;;7.28;59.77;99618.94;5024898;27;114426;-65
2023/03/07 07:24:29;;;;;;;3.42;2.30;;;;;;;7.27;59.85;99617.22;5035361;27;124054;-65
2023/03/07 07:26:57;;;;;;;3.85;2.10;;;;;;;7.23;59.58;99611.25;5034704;27;123530;-65
2023/03/07 07:29:24;;;;;;;3.72;2.13;;;;;;;7.18;59.45;99618.56;5034450;27;114714;-64
2023/03/07 07:31:51;;;;;;;4.22;2.15;;;;;;;7.12;59.41;99619.72;5022690;27;113151;-65
2023/03/07 07:34:20;;;;;;;2.90;2.08;;;;;;;7.06;59.76;99614.75;5025449;27;123194;-65
2023/03/07 07:36:47;;;;;;;5.28;2.63;;;;;;;7.02;59.41;99618.47;5034434;27;123798;-65
2023/03/07 07:39:16;;;;;;;4.40;2.55;;;;;;;6.97;59.70;99616.06;5034893;27;113791;-64
2023/03/07 07:41:45;;;;;;;7.45;2.50;;;;;;;6.95;59.65;99617.06;5053755;27;114319;-65
2023/03/07 07:44:12;;;;;;;5.63;2.88;;;;;;;6.94;59.55;99620.63;5030503;27;123879;-65
2023/03/07 07:46:55;;;;;;;5.10;3.00;;;;;;;6.91;59.79;99615.50;5039312;27;123329;-65
2023/03/07 07:49:23;;;;;;;5.35;3.40;;;;;;;6.89;59.89;99625.25;5049308;27;113376;-64
2023/03/07 07:51:50;;;;;;;7.13;4.13;;;;;;;6.86;59.65;99639.44;5034141;27;113414;-65
2023/03/07 07:54:17;;;;;;;6.68;4.25;;;;;;;6.86;59.95;99638.59;5033697;27;123818;-66
2023/03/07 07:56:47;;;;;;;7.78;4.70;;;;;;;6.82;59.60;99638.72;5052010;27;123001;-66
2023/03/07 07:59:15;;;;;;;7.38;4.68;;;;;;;6.77;59.72;99646.00;5034702;27;113435;-67
2023/03/07 08:01:42;;;;;;;8.45;3.75;;;;;;;6.74;59.59;99654.06;5043566;27;113839;-65
2023/03/07 08:04:10;;;;;;;5.53;3.13;;;;;;;6.73;59.56;99670.75;5025857;27;124268;-65
2023/03/07 08:06:37;;;;;;;4.75;1.92;;;;;;;6.69;59.11;99663.94;5040998;27;124211;-66
2023/03/07 08:09:04;;;;;;;2.83;1.50;;;;;;;6.62;59.74;99665.16;5048202;27;116042;-65
2023/03/07 08:11:31;;;;;;;2.92;1.60;;;;;;;6.55;59.65;99669.84;5048133;27;114964;-66
2023/03/07 08:13:58;;;;;;;4.10;1.70;;;;;;;6.50;59.59;99670.97;5033522;27;123535;-66
2023/03/07 08:16:26;;;;;;;3.15;1.70;;;;;;;6.49;59.76;99671.94;5033455;27;122713;-66
2023/03/07 08:18:55;;;;;;;3.00;1.48;;;;;;;6.46;59.25;99672.94;5038548;27;114161;-66
2023/03/07 08:21:24;;;;;;;2.90;1.35;;;;;;;6.41;59.43;99681.03;5051082;27;114542;-66
2023/03/07 08:23:53;;;;;;;3.17;1.40;;;;;;;6.38;59.72;99680.31;5052529;27;125605;-66
2023/03/07 08:26:21;;;;;;;4.93;1.33;;;;;;;6.35;59.51;99680.47;5059687;27;123942;-66
2023/03/07 08:28:48;;;;;;;2.33;1.10;;;;;;;6.33;59.49;99680.53;5032010;27;114182;-66
2023/03/07 08:31:24;;;;;;;2.35;1.35;;;;;;;6.30;59.48;99678.03;5049337;27;113953;-66
2023/03/07 08:33:52;;;;;;;2.05;1.20;;;;;;;6.28;59.51;99679.88;5039688;27;124006;-65
2023/03/07 08:36:49;;;;;;;2.13;1.08;;;;;;;6.26;59.77;99687.00;5049649;27;123730;-65
2023/03/07 08:39:16;;;;;;;2.33;1.40;;;;;;;6.25;59.73;99687.91;5034701;27;113781;-65
2023/03/07 08:41:43;;;;;;;2.00;1.20;;;;;;;6.23;59.39;99687.13;5066863;27;114340;-65
2023/03/07 08:44:10;;;;;;;2.55;1.25;;;;;;;6.19;59.65;99690.81;5056431;27;124290;-65
2023/03/07 08:46:37;;;;;;;1.85;1.17;;;;;;;6.16;59.35;99690.94;5062619;27;124534;-65
2023/03/07 08:49:05;;;;;;;2.60;1.20;;;;;;;6.13;59.53;99688.47;5063037;27;115258;-65
2023/03/07 08:51:33;;;;;;;1.60;1.10;;;;;;;6.10;59.68;99684.19;5034132;27;112820;-66
2023/03/07 08:54:01;;;;;;;2.80;1.27;;;;;;;6.09;59.57;99684.28;5038991;27;124794;-67
2023/03/07 08:56:28;;;;;;;4.00;1.25;;;;;;;6.10;59.64;99685.97;5051953;27;125238;-66
2023/03/07 08:58:55;;;;;;;4.38;1.30;;;;;;;6.12;59.82;99684.13;5035323;27;115665;-66
2023/03/07 09:01:22;;;;;;;2.67;1.33;;;;;;;6.13;59.37;99680.59;5040484;27;115246;-66
2023/03/07 09:03:49;;;;;;;4.55;1.40;;;;;;;6.13;59.71;99680.59;5046837;27;123838;-65
2023/03/07 09:06:19;;;;;;;3.72;1.17;;;;;;;6.13;59.59;99670.09;5061628;27;124364;-65
2023/03/07 09:08:49;;;;;;;2.45;1.40;;;;;;;6.18;59.85;99673.38;5016708;27;113627;-66
2023/03/07 09:11:17;;;;;;;2.60;1.55;;;;;;;6.20;59.54;99676.78;5051358;27;114290;-66
2023/03/07 09:13:45;;;;;;;2.53;1.42;;;;;;;6.21;59.78;99683.72;5051220;27;123834;-66
2023/03/07 09:16:22;;;;;;;2.20;1.55;;;;;;;6.25;59.74;99685.28;5048881;27;123762;-66
2023/03/07 09:18:49;;;;;;;2.85;1.58;;;;;;;6.27;59.93;99683.44;5052258;27;114586;-66
2023/03/07 09:21:16;;;;;;;3.83;1.90;;;;;;;6.29;59.87;99686.88;5068085;27;114020;-66
2023/03/07 09:23:44;;;;;;;3.22;1.70;;;;;;;6.29;59.86;99681.59;5051489;27;124072;-66
2023/03/07 09:26:11;;;;;;;4.20;2.20;;;;;;;6.31;59.34;99685.03;5038255;27;123921;-66
2023/03/07 09:28:39;;;;;;;4.85;2.35;;;;;;;6.32;59.36;99691.13;5028371;27;114194;-66
2023/03/07 09:31:08;;;;;;;4.65;2.58;;;;;;;6.31;59.31;99685.03;5023918;27;113410;-66
2023/03/07 09:33:36;;;;;;;2.92;1.73;;;;;;;6.32;59.61;99681.44;5042289;27;124082;-66
2023/03/07 09:36:09;;;;;;;4.18;1.60;;;;;;;6.33;59.92;99684.91;5071464;27;123920;-66
2023/03/07 09:38:37;;;;;;;3.80;1.95;;;;;;;6.34;59.68;99690.13;5048265;27;114082;-66
2023/03/07 09:41:32;;;;;;;4.05;2.05;;;;;;;6.36;59.54;99696.16;5031603;27;114056;-66
2023/03/07 09:44:22;;;;;;;5.85;2.45;;;;;;;6.35;59.65;99697.09;5052998;27;123925;-66
2023/03/07 09:47:28;;;;;;;4.78;2.20;;;;;;;6.36;59.71;99693.53;5033485;27;124670;-66
2023/03/07 09:49:59;;;;;;;4.75;2.30;;;;;;;6.38;59.48;99696.94;5056297;27;115515;-66
2023/03/07 09:52:31;;;;;;;3.95;2.13;;;;;;;6.41;59.67;99701.22;5054017;27;115331;-67
2023/03/07 09:55:01;;;;;;;4.82;2.30;;;;;;;6.43;59.80;99705.47;5042647;27;123954;-66
2023/03/07 09:57:31;;;;;;;4.85;2.45;;;;;;;6.46;59.80;99701.00;5036141;27;122840;-66
2023/03/07 10:00:35;;;;;;;4.35;2.28;;;;;;;6.48;59.95;99701.78;5016805;27;113215;-66
2023/03/07 10:03:27;;;;;;;3.65;1.98;;;;;;;6.50;59.83;99699.91;5030726;27;113994;-66
2023/03/07 10:05:59;;;;;;;3.10;2.03;;;;;;;6.51;59.95;99699.84;5033511;27;123974;-66
2023/03/07 10:08:32;;;;;;;3.35;2.00;;;;;;;6.54;59.58;99701.50;5030259;27;123887;-66
2023/03/07 10:11:07;;;;;;;3.42;1.90;;;;;;;6.55;59.92;99703.19;5047703;27;114259;-66
2023/03/07 10:14:00;;;;;;;3.75;2.15;;;;;;;6.58;59.83;99697.81;5015150;27;113155;-66
2023/03/07 10:16:45;;;;;;;4.05;1.98;;;;;;;6.62;60.04;99694.94;5047589;27;124298;-66
2023/03/07 10:19:31;;;;;;;3.10;1.70;;;;;;;6.65;59.64;99698.34;5049880;27;124238;-66
2023/03/07 10:22:23;;;;;;;2.67;1.35;;;;;;;6.70;59.88;99705.09;5039432;27;114957;-66
2023/03/07 10:25:11;;;;;;;4.03;1.65;;;;;;;6.74;59.83;99700.53;5043990;27;114561;-66
2023/03/07 10:27:39;;;;;;;3.05;1.27;;;;;;;6.78;59.81;99702.97;5030604;27;124088;-66
2023/03/07 10:30:16;;;;;;;2.38;1.40;;;;;;;6.80;59.78;99703.75;5017412;27;123559;-66
2023/03/07 10:32:52;;;;;;;2.85;1.77;;;;;;;6.83;59.66;99708.00;5044962;27;114810;-66
2023/03/07 10:35:20;;;;;;;;;;;;;;;6.83;59.88;99703.59;5035709;27;113802;-66
2023/03/07 10:37:52;;;;;;;2.35;1.45;;;;;;;6.87;59.47;99703.44;5033832;27;124581;-66
2023/03/07 10:40:32;;;;;;;2.45;1.25;;;;;;;6.89;59.67;99701.59;5034822;27;123719;-66
2023/03/07 10:42:59;;;;;;;3.83;1.77;;;;;;;6.93;59.93;99705.78;5034597;27;115455;-66
2023/03/07 10:45:30;;;;;;;2.70;1.60;;;;;;;6.97;59.65;99710.00;5047343;27;114251;-66
2023/03/07 10:48:17;;;;;;;3.08;1.50;;;;;;;7.01;59.81;99695.75;5047736;27;124740;-66
2023/03/07 10:51:04;;;;;;;2.72;1.30;;;;;;;7.07;59.80;99705.97;5024238;27;123736;-67
2023/03/07 10:53:35;;;;;;;2.83;1.70;;;;;;;7.11;59.87;99704.88;5048845;27;114353;-66
2023/03/07 10:56:18;;;;;;;2.97;1.20;;;;;;;7.15;60.04;99703.81;5052277;27;114240;-66
2023/03/07 10:58:58;;;;;;;2.90;1.40;;;;;;;7.19;59.75;99700.09;5042397;27;124329;-66
2023/03/07 11:01:26;;;;;;;2.55;1.50;;;;;;;7.24;60.02;99706.94;5037508;27;124438;-66
2023/03/07 11:04:05;;;;;;;2.35;1.40;;;;;;;7.28;59.90;99692.69;5052461;27;114129;-66
2023/03/07 11:06:38;;;;;;;2.20;1.45;;;;;;;7.35;60.19;99699.34;5030356;27;114163;-66
2023/03/07 11:09:28;;;;;;;3.58;1.55;;;;;;;7.42;59.97;99700.72;5040449;27;124258;-66
2023/03/07 11:12:11;;;;;;;2.83;1.60;;;;;;;7.45;59.92;99699.72;5037733;27;123928;-66
2023/03/07 11:14:50;;;;;;;3.13;1.63;;;;;;;7.50;59.91;99700.34;5043832;27;114188;-66
2023/03/07 11:17:20;;;;;;;3.97;1.88;;;;;;;7.56;59.88;99697.41;5047611;27;112928;-66
2023/03/07 11:19:57;;;;;;;3.47;1.42;;;;;;;7.63;59.73;99692.66;5031088;27;124039;-66
2023/03/07 11:22:33;;;;;;;4.30;1.60;;;;;;;7.66;59.88;99701.25;5038159;27;123941;-65
2023/03/07 11:25:02;;;;;;;;;;;;;;;7.69;59.90;99695.00;5021014;27;114298;-65
2023/03/07 11:27:38;;;;;;;3.38;1.65;;;;;;;7.72;59.77;99697.44;5038588;27;114032;-65
2023/03/07 11:30:21;;;;;;;4.03;1.58;;;;;;;7.75;59.60;99692.88;5047562;27;123959;-65
2023/03/07 11:33:26;;;;;;;3.13;1.70;;;;;;;7.79;59.92;99699.69;5018793;27;123901;-65
2023/03/07 11:36:14;;;;;;;2.60;1.40;;;;;;;7.80;59.57;99700.56;5038842;27;115176;-65
2023/03/07 11:38:41;;;;;;;2.60;1.33;;;;;;;7.81;59.61;99699.63;5033819;27;115185;-65
2023/03/07 11:41:11;;;;;;;2.83;1.55;;;;;;;7.84;59.53;99694.19;5037498;27;124143;-65
2023/03/07 11:44:17;;;;;;;2.30;1.17;;;;;;;7.81;59.19;99694.34;5045667;27;123769;-65
2023/03/07 11:46:50;;;;;;;3.55;1.45;;;;;;;7.79;59.54;99693.56;5001806;27;114255;-65
2023/03/07 11:49:52;;;;;;;2.08;1.25;;;;;;;7.79;59.31;99693.56;5039860;27;113878;-65
2023/03/07 11:52:48;;;;;;;2.50;1.20;;;;;;;7.77;59.34;99691.00;5012611;27;123428;-65